Scapoli — WDJ7180 — position and weather

sailwx.info

Track history (hours):
 
Tides and Currents Weather Stations Pressure Air Temp Water Temp Dewpoint Dewpoint Depression Visibility Wind Speed Wind Dir Waves Ship Positions

Scapoli

Owner: Moore, Claude B, Del Ray Beach, FL. More information available from US FCC via Universal Licensing System and Coast Guard Vessel Documentation Center.

Last reported at 2018-Jan-22 15:46 UTC. Time now 2018-Feb-22 15:12 UTC.
Position N 26°21' W 080°05'.
Warning: this ship's position is 30 days out of date.

Length 29 m.

Type: Pleasure craft. MMSI: 368004130.

Date/timePositionNaut miles runAvg speedWind from/ knotsBaromVisibWave heightAir tempDewpointWater temp
2018-Jan-22 15:46N 26°21' W 080°05'  
2018-Jan-19 23:06N 26°21' W 080°05'4 2.7
2018-Jan-19 21:39N 26°17' W 080°05'1 5.1
2018-Jan-19 21:30N 26°16' W 080°05'2 4.5
2018-Jan-19 21:01N 26°14' W 080°06'3 5.1
2018-Jan-19 20:27N 26°11' W 080°06'2 2.3
2018-Jan-19 19:48N 26°10' W 080°06'1 4.5
2018-Jan-19 19:28N 26°08' W 080°07'1 2.2
2018-Jan-19 18:58N 26°07' W 080°07'0 0.0
2018-Jan-19 18:28N 26°07' W 080°07'0 0.0
2018-Jan-19 17:58N 26°07' W 080°07'0 0.0
2018-Jan-19 17:28N 26°07' W 080°07'2 3.6
2018-Jan-19 17:00N 26°05' W 080°07'2 3.7
2018-Jan-19 16:29N 26°04' W 080°08'0 0.0
2018-Jan-19 15:58N 26°04' W 080°08'0 0.0
2018-Jan-19 15:28N 26°04' W 080°08'0 0.0
2018-Jan-19 14:58N 26°04' W 080°08'0 0.0
2018-Jan-19 14:28N 26°04' W 080°08'0 0.0
2018-Jan-19 13:58N 26°04' W 080°08'0 0.0
2018-Jan-19 12:49N 26°04' W 080°08'0 0.0
2018-Jan-19 12:22N 26°04' W 080°08'0 0.0
2018-Jan-19 11:58N 26°04' W 080°08'0 0.0
2018-Jan-19 11:27N 26°04' W 080°08'0 0.0
2018-Jan-19 10:57N 26°04' W 080°08'0 0.0
2018-Jan-19 10:25N 26°04' W 080°08'0 0.0
2018-Jan-19 09:55N 26°04' W 080°08'0 0.0
2018-Jan-19 09:13N 26°04' W 080°08'0 0.0
2018-Jan-19 08:58N 26°04' W 080°08'0 0.0
2018-Jan-19 08:28N 26°04' W 080°08'0 0.0
2018-Jan-19 07:55N 26°04' W 080°08'0 0.0
2018-Jan-19 07:28N 26°04' W 080°08'0 0.0
2018-Jan-19 06:55N 26°04' W 080°08'0 0.0
2018-Jan-19 06:21N 26°04' W 080°08'0 0.0
2018-Jan-19 05:36N 26°04' W 080°08'0 0.0
2018-Jan-19 05:21N 26°04' W 080°08'0 0.0
2018-Jan-19 04:54N 26°04' W 080°08'0 0.0
2018-Jan-19 04:24N 26°04' W 080°08'0 0.0
2018-Jan-19 03:48N 26°04' W 080°08'0 0.0
2018-Jan-19 03:24N 26°04' W 080°08'0 0.0
2018-Jan-19 02:54N 26°04' W 080°08'0 0.0
2018-Jan-19 02:21N 26°04' W 080°08'0 0.0
2018-Jan-19 01:36N 26°04' W 080°08'0 0.0
2018-Jan-19 01:21N 26°04' W 080°08'0 0.0
2018-Jan-19 00:51N 26°04' W 080°08'0 0.0
2018-Jan-19 00:21N 26°04' W 080°08'0 0.0
2018-Jan-18 23:51N 26°04' W 080°08'0 0.0
2018-Jan-18 23:21N 26°04' W 080°08'0 0.0
2018-Jan-18 22:51N 26°04' W 080°08'0 0.0
2018-Jan-18 22:21N 26°04' W 080°08'0 0.0
2018-Jan-18 21:51N 26°04' W 080°08'0 0.0
2018-Jan-18 21:30N 26°04' W 080°08'0 0.0
2018-Jan-18 21:00N 26°04' W 080°08'0 0.0
2018-Jan-18 20:18N 26°04' W 080°08'0 0.0
2018-Jan-18 19:59N 26°04' W 080°08'0 0.0
2018-Jan-18 18:02N 26°04' W 080°08'0 0.0
2018-Jan-18 17:59N 26°04' W 080°08'0 0.0
2018-Jan-18 16:29N 26°04' W 080°08'0 0.2
2018-Jan-18 15:52N 26°03' W 080°08'0 0.2
2018-Jan-18 15:30N 26°03' W 080°08'0 0.0
2018-Jan-18 14:48N 26°03' W 080°08'0 0.0
2018-Jan-18 14:30N 26°03' W 080°08'0 0.0
2018-Jan-18 14:00N 26°03' W 080°08'0 0.0
2018-Jan-18 13:30N 26°03' W 080°08'0 0.0
2018-Jan-18 12:57N 26°03' W 080°08'0 0.0
2018-Jan-18 12:30N 26°03' W 080°08'0 0.0
2018-Jan-18 12:00N 26°03' W 080°08'0 0.0
2018-Jan-18 11:30N 26°03' W 080°08'0 0.0
2018-Jan-18 11:00N 26°03' W 080°08'0 0.0
2018-Jan-18 10:27N 26°03' W 080°08'0 0.0
2018-Jan-18 09:56N 26°03' W 080°08'0 0.0
2018-Jan-18 09:26N 26°03' W 080°08'0 0.0
2018-Jan-18 08:59N 26°03' W 080°08'0 0.0
2018-Jan-18 08:23N 26°03' W 080°08'0 0.0
2018-Jan-18 07:59N 26°03' W 080°08'0 0.0
2018-Jan-18 07:30N 26°03' W 080°08'0 0.0
2018-Jan-18 07:00N 26°03' W 080°08'0 0.0
2018-Jan-18 06:17N 26°03' W 080°08'0 0.0
2018-Jan-18 05:59N 26°03' W 080°08'0 0.0
2018-Jan-18 05:14N 26°03' W 080°08'0 0.0
2018-Jan-18 04:59N 26°03' W 080°08'0 0.0
2018-Jan-18 04:29N 26°03' W 080°08'0 0.0
2018-Jan-18 03:59N 26°03' W 080°08'0 0.0
2018-Jan-18 03:29N 26°03' W 080°08'0 0.0
2018-Jan-18 02:59N 26°03' W 080°08'0 0.0
2018-Jan-18 02:29N 26°03' W 080°08'0 0.0
2018-Jan-18 01:59N 26°03' W 080°08'0 0.0
2018-Jan-18 01:29N 26°03' W 080°08'0 0.0
2018-Jan-18 00:56N 26°03' W 080°08'0 0.0
2018-Jan-17 23:59N 26°03' W 080°08'0 0.0
2018-Jan-17 23:56N 26°03' W 080°08'  
Track history (hours):
 
Tides and Currents Weather Stations Pressure Air Temp Water Temp Dewpoint Dewpoint Depression Visibility Wind Speed Wind Dir Waves Ship Positions

Scapoli

Owner: Moore, Claude B, Del Ray Beach, FL. More information available from US FCC via Universal Licensing System and Coast Guard Vessel Documentation Center.

Last reported at 2018-Jan-22 15:46 UTC. Time now 2018-Feb-22 15:12 UTC.
Position N 26°21' W 080°05'.
Warning: this ship's position is 30 days out of date.

Length 29 m.

Type: Pleasure craft. MMSI: 368004130.

Date/timePositionNaut miles runAvg speedWind from/ knotsBaromVisibWave heightAir tempDewpointWater temp
2018-Jan-22 15:46N 26°21' W 080°05'  
2018-Jan-19 23:06N 26°21' W 080°05'4 2.7
2018-Jan-19 21:39N 26°17' W 080°05'1 5.1
2018-Jan-19 21:30N 26°16' W 080°05'2 4.5
2018-Jan-19 21:01N 26°14' W 080°06'3 5.1
2018-Jan-19 20:27N 26°11' W 080°06'2 2.3
2018-Jan-19 19:48N 26°10' W 080°06'1 4.5
2018-Jan-19 19:28N 26°08' W 080°07'1 2.2
2018-Jan-19 18:58N 26°07' W 080°07'0 0.0
2018-Jan-19 18:28N 26°07' W 080°07'0 0.0
2018-Jan-19 17:58N 26°07' W 080°07'0 0.0
2018-Jan-19 17:28N 26°07' W 080°07'2 3.6
2018-Jan-19 17:00N 26°05' W 080°07'2 3.7
2018-Jan-19 16:29N 26°04' W 080°08'0 0.0
2018-Jan-19 15:58N 26°04' W 080°08'0 0.0
2018-Jan-19 15:28N 26°04' W 080°08'0 0.0
2018-Jan-19 14:58N 26°04' W 080°08'0 0.0
2018-Jan-19 14:28N 26°04' W 080°08'0 0.0
2018-Jan-19 13:58N 26°04' W 080°08'0 0.0
2018-Jan-19 12:49N 26°04' W 080°08'0 0.0
2018-Jan-19 12:22N 26°04' W 080°08'0 0.0
2018-Jan-19 11:58N 26°04' W 080°08'0 0.0
2018-Jan-19 11:27N 26°04' W 080°08'0 0.0
2018-Jan-19 10:57N 26°04' W 080°08'0 0.0
2018-Jan-19 10:25N 26°04' W 080°08'0 0.0
2018-Jan-19 09:55N 26°04' W 080°08'0 0.0
2018-Jan-19 09:13N 26°04' W 080°08'0 0.0
2018-Jan-19 08:58N 26°04' W 080°08'0 0.0
2018-Jan-19 08:28N 26°04' W 080°08'0 0.0
2018-Jan-19 07:55N 26°04' W 080°08'0 0.0
2018-Jan-19 07:28N 26°04' W 080°08'0 0.0
2018-Jan-19 06:55N 26°04' W 080°08'0 0.0
2018-Jan-19 06:21N 26°04' W 080°08'0 0.0
2018-Jan-19 05:36N 26°04' W 080°08'0 0.0
2018-Jan-19 05:21N 26°04' W 080°08'0 0.0
2018-Jan-19 04:54N 26°04' W 080°08'0 0.0
2018-Jan-19 04:24N 26°04' W 080°08'0 0.0
2018-Jan-19 03:48N 26°04' W 080°08'0 0.0
2018-Jan-19 03:24N 26°04' W 080°08'0 0.0
2018-Jan-19 02:54N 26°04' W 080°08'0 0.0
2018-Jan-19 02:21N 26°04' W 080°08'0 0.0
2018-Jan-19 01:36N 26°04' W 080°08'0 0.0
2018-Jan-19 01:21N 26°04' W 080°08'0 0.0
2018-Jan-19 00:51N 26°04' W 080°08'0 0.0
2018-Jan-19 00:21N 26°04' W 080°08'0 0.0
2018-Jan-18 23:51N 26°04' W 080°08'0 0.0
2018-Jan-18 23:21N 26°04' W 080°08'0 0.0
2018-Jan-18 22:51N 26°04' W 080°08'0 0.0
2018-Jan-18 22:21N 26°04' W 080°08'0 0.0
2018-Jan-18 21:51N 26°04' W 080°08'0 0.0
2018-Jan-18 21:30N 26°04' W 080°08'0 0.0
2018-Jan-18 21:00N 26°04' W 080°08'0 0.0
2018-Jan-18 20:18N 26°04' W 080°08'0 0.0
2018-Jan-18 19:59N 26°04' W 080°08'0 0.0
2018-Jan-18 18:02N 26°04' W 080°08'0 0.0
2018-Jan-18 17:59N 26°04' W 080°08'0 0.0
2018-Jan-18 16:29N 26°04' W 080°08'0 0.2
2018-Jan-18 15:52N 26°03' W 080°08'0 0.2
2018-Jan-18 15:30N 26°03' W 080°08'0 0.0
2018-Jan-18 14:48N 26°03' W 080°08'0 0.0
2018-Jan-18 14:30N 26°03' W 080°08'0 0.0
2018-Jan-18 14:00N 26°03' W 080°08'0 0.0
2018-Jan-18 13:30N 26°03' W 080°08'0 0.0
2018-Jan-18 12:57N 26°03' W 080°08'0 0.0
2018-Jan-18 12:30N 26°03' W 080°08'0 0.0
2018-Jan-18 12:00N 26°03' W 080°08'0 0.0
2018-Jan-18 11:30N 26°03' W 080°08'0 0.0
2018-Jan-18 11:00N 26°03' W 080°08'0 0.0
2018-Jan-18 10:27N 26°03' W 080°08'0 0.0
2018-Jan-18 09:56N 26°03' W 080°08'0 0.0
2018-Jan-18 09:26N 26°03' W 080°08'0 0.0
2018-Jan-18 08:59N 26°03' W 080°08'0 0.0
2018-Jan-18 08:23N 26°03' W 080°08'0 0.0
2018-Jan-18 07:59N 26°03' W 080°08'0 0.0
2018-Jan-18 07:30N 26°03' W 080°08'0 0.0
2018-Jan-18 07:00N 26°03' W 080°08'0 0.0
2018-Jan-18 06:17N 26°03' W 080°08'0 0.0
2018-Jan-18 05:59N 26°03' W 080°08'0 0.0
2018-Jan-18 05:14N 26°03' W 080°08'0 0.0
2018-Jan-18 04:59N 26°03' W 080°08'0 0.0
2018-Jan-18 04:29N 26°03' W 080°08'0 0.0
2018-Jan-18 03:59N 26°03' W 080°08'0 0.0
2018-Jan-18 03:29N 26°03' W 080°08'0 0.0
2018-Jan-18 02:59N 26°03' W 080°08'0 0.0
2018-Jan-18 02:29N 26°03' W 080°08'0 0.0
2018-Jan-18 01:59N 26°03' W 080°08'0 0.0
2018-Jan-18 01:29N 26°03' W 080°08'0 0.0
2018-Jan-18 00:56N 26°03' W 080°08'0 0.0
2018-Jan-17 23:59N 26°03' W 080°08'0 0.0
2018-Jan-17 23:56N 26°03' W 080°08'  

Dump ship's entire track history